Historique des mesures à Cassis (13260), France
Quotidien Résumé Mars 20, 2018 Unités:  Métrique    US   Métrique/US
« Précédent (Jour)
Suivant (Jour) »
Quotidien Hebdomadaire Mensuel Annuel Période au choix
  Maximum: Minimum: Moyenne:
Température: TemperatureC °C 6.9 °C 9.1 °C
Point de rosée: DewpointC °C -2.6 °C 1.4 °C
Humidité: Humidity % 47 % 55 %
Vitesse du vent: 0 km/h 0 km/h 10.6 km/h
Rafales: 0 km/h - -
Vent:- - WSW
Pression: PressurehPa hPa 995.8 hPa -
Précipitations: 0.0 mm    
Historical Graphs
 
 
Mesures pour : Mars 20, 2018
Heure Temperature Point de rosée Pression Vent Vitesse du vent Rafales Humidité Pluie (par heure) Conditions
TemperatureC °C DewpointC °C PressurehPa hPa Calm     Humidity % HourlyPrecipMM mm SoftwareType W/m2
00:12 7.6 °C 1.8 °C 997.9 hPa WNW 9.3 km/h 9.3 km/h 67 % 0.0 mm open2300-1.11 W/m2
01:11 7.9 °C 1.9 °C 997.2 hPa North 5.1 km/h 5.6 km/h 66 % 0.0 mm open2300-1.11 W/m2
02:11 7.7 °C 1.5 °C 996.8 hPa NNW 4.2 km/h 5.6 km/h 65 % 0.0 mm open2300-1.11 W/m2
03:11 7.5 °C 0.9 °C 996.5 hPa NNW 1.8 km/h 3.4 km/h 63 % 0.0 mm open2300-1.11 W/m2
04:12 7.8 °C 0.7 °C 995.8 hPa NW 2.3 km/h 4.2 km/h 61 % 0.0 mm open2300-1.11 W/m2
05:11 7.4 °C 1.2 °C 996.2 hPa NNW 8.9 km/h 15 km/h 65 % 0.0 mm open2300-1.11 W/m2
06:11 7.3 °C 1.1 °C 996.2 hPa NNW 8 km/h 8 km/h 65 % 0.0 mm open2300-1.11 W/m2
07:11 6.9 °C 1.6 °C 996.5 hPa Calm   5.6 km/h 69 % 0.0 mm open2300-1.11 W/m2
08:11 8.3 °C 2.9 °C 997.2 hPa West 6.4 km/h 8.9 km/h 69 % 0.0 mm open2300-1.11 W/m2
09:11 9.5 °C 3.0 °C 997.9 hPa NW 3.4 km/h 7.6 km/h 64 % 0.0 mm open2300-1.11 W/m2
10:12 10.9 °C 3.2 °C 998.9 hPa WNW 9.8 km/h 10.9 km/h 59 % 0.0 mm open2300-1.11 W/m2
11:12 11.8 °C 3.3 °C 998.9 hPa NNW 4.2 km/h 6.9 km/h 56 % 0.0 mm open2300-1.11 W/m2
12:12 13.4 °C 4.0 °C 999.2 hPa NNE 5.6 km/h 5.6 km/h 53 % 0.0 mm open2300-1.11 W/m2
13:11 13.8 °C 3.6 °C 999.2 hPa NW 37.5 km/h 37.5 km/h 50 % 0.0 mm open2300-1.11 W/m2
14:11 13.0 °C 2.2 °C 998.9 hPa NNW 15 km/h 15 km/h 48 % 0.0 mm open2300-1.11 W/m2
15:11 12.7 °C 1.6 °C 998.9 hPa WNW 23 km/h 33.6 km/h 47 % 0.0 mm open2300-1.11 W/m2
16:11 12.4 °C 1.7 °C 999.2 hPa NNE 14.5 km/h 19.6 km/h 48 % 0.0 mm open2300-1.11 W/m2
17:12 10.8 °C 0.2 °C 999.9 hPa North 17.9 km/h 19.6 km/h 48 % 0.0 mm open2300-1.11 W/m2
18:11 9.6 °C -0.3 °C 1000.6 hPa NW 19.6 km/h 24.8 km/h 50 % 0.0 mm open2300-1.11 W/m2
19:12 7.9 °C -0.9 °C 1000.9 hPa NNW 17.9 km/h 52 km/h 54 % 0.0 mm open2300-1.11 W/m2
20:11 8.1 °C -0.9 °C 1001.9 hPa North 12.7 km/h 27.7 km/h 53 % 0.0 mm open2300-1.11 W/m2
23:11 7.5 °C -2.6 °C 1003.9 hPa NNW 16.3 km/h 16.3 km/h 49 % 0.0 mm open2300-1.11 W/m2
Observations météo à CASSIS
WU-History script by Weather Underground - 1 mb